sensor_id;sensor_type;location;lat;lon;timestamp;temperature;humidity
59923;DHT22;45778;51.142;3.732;2022-08-20T00:00:10;17.50;99.90
59923;DHT22;45778;51.142;3.732;2022-08-20T00:02:44;17.30;99.90
59923;DHT22;45778;51.142;3.732;2022-08-20T00:05:10;17.30;99.90
59923;DHT22;45778;51.142;3.732;2022-08-20T00:07:36;17.20;99.90
59923;DHT22;45778;51.142;3.732;2022-08-20T00:10:03;17.20;99.90
59923;DHT22;45778;51.142;3.732;2022-08-20T00:12:31;17.20;99.90
59923;DHT22;45778;51.142;3.732;2022-08-20T00:14:56;17.10;99.90
59923;DHT22;45778;51.142;3.732;2022-08-20T00:17:22;17.10;99.90
59923;DHT22;45778;51.142;3.732;2022-08-20T00:19:48;17.20;99.90
59923;DHT22;45778;51.142;3.732;2022-08-20T00:22:13;17.10;99.90
59923;DHT22;45778;51.142;3.732;2022-08-20T00:24:39;17.00;99.90
59923;DHT22;45778;51.142;3.732;2022-08-20T00:27:05;16.90;99.90
59923;DHT22;45778;51.142;3.732;2022-08-20T00:29:30;17.00;99.90
59923;DHT22;45778;51.142;3.732;2022-08-20T00:31:56;16.90;99.90
59923;DHT22;45778;51.142;3.732;2022-08-20T00:34:22;16.90;99.90
59923;DHT22;45778;51.142;3.732;2022-08-20T00:36:48;16.80;99.90
59923;DHT22;45778;51.142;3.732;2022-08-20T00:39:13;16.80;99.90
59923;DHT22;45778;51.142;3.732;2022-08-20T00:41:39;16.80;99.90
59923;DHT22;45778;51.142;3.732;2022-08-20T00:46:31;16.80;99.90
59923;DHT22;45778;51.142;3.732;2022-08-20T00:48:57;16.60;99.90
59923;DHT22;45778;51.142;3.732;2022-08-20T00:54:15;16.60;99.90
59923;DHT22;45778;51.142;3.732;2022-08-20T00:56:45;16.50;99.90
59923;DHT22;45778;51.142;3.732;2022-08-20T00:59:15;16.50;99.90
59923;DHT22;45778;51.142;3.732;2022-08-20T01:01:43;16.40;99.90
59923;DHT22;45778;51.142;3.732;2022-08-20T01:04:09;16.40;99.90
59923;DHT22;45778;51.142;3.732;2022-08-20T01:06:37;16.40;99.90
59923;DHT22;45778;51.142;3.732;2022-08-20T01:09:04;16.40;99.90
59923;DHT22;45778;51.142;3.732;2022-08-20T01:11:30;16.50;99.90
59923;DHT22;45778;51.142;3.732;2022-08-20T01:14:05;16.50;99.90
59923;DHT22;45778;51.142;3.732;2022-08-20T01:17:04;16.50;99.90
59923;DHT22;45778;51.142;3.732;2022-08-20T01:19:36;16.50;99.90
59923;DHT22;45778;51.142;3.732;2022-08-20T01:22:03;16.40;99.90
59923;DHT22;45778;51.142;3.732;2022-08-20T01:24:53;16.40;99.90
59923;DHT22;45778;51.142;3.732;2022-08-20T01:27:19;16.40;99.90
59923;DHT22;45778;51.142;3.732;2022-08-20T01:29:46;16.50;99.90
59923;DHT22;45778;51.142;3.732;2022-08-20T01:32:12;16.50;99.90
59923;DHT22;45778;51.142;3.732;2022-08-20T01:34:38;16.50;99.90
59923;DHT22;45778;51.142;3.732;2022-08-20T01:37:04;16.60;99.90
59923;DHT22;45778;51.142;3.732;2022-08-20T01:39:33;16.50;99.90
59923;DHT22;45778;51.142;3.732;2022-08-20T01:44:25;16.40;99.90
59923;DHT22;45778;51.142;3.732;2022-08-20T01:46:53;16.30;99.90
59923;DHT22;45778;51.142;3.732;2022-08-20T01:49:26;16.30;99.90
59923;DHT22;45778;51.142;3.732;2022-08-20T01:51:54;16.10;99.90
59923;DHT22;45778;51.142;3.732;2022-08-20T01:54:22;16.10;99.90
59923;DHT22;45778;51.142;3.732;2022-08-20T01:56:58;16.10;99.90
59923;DHT22;45778;51.142;3.732;2022-08-20T01:59:25;16.00;99.90
59923;DHT22;45778;51.142;3.732;2022-08-20T02:01:51;16.00;99.90
59923;DHT22;45778;51.142;3.732;2022-08-20T02:04:18;16.00;99.90
59923;DHT22;45778;51.142;3.732;2022-08-20T02:06:50;15.90;99.90
59923;DHT22;45778;51.142;3.732;2022-08-20T02:09:16;15.90;99.90
59923;DHT22;45778;51.142;3.732;2022-08-20T02:11:42;15.90;99.90
59923;DHT22;45778;51.142;3.732;2022-08-20T02:14:09;15.90;99.90
59923;DHT22;45778;51.142;3.732;2022-08-20T02:16:37;15.80;99.90
59923;DHT22;45778;51.142;3.732;2022-08-20T02:19:10;15.80;99.90
59923;DHT22;45778;51.142;3.732;2022-08-20T02:21:40;15.80;99.90
59923;DHT22;45778;51.142;3.732;2022-08-20T02:24:07;15.80;99.90
59923;DHT22;45778;51.142;3.732;2022-08-20T02:26:33;15.80;99.90
59923;DHT22;45778;51.142;3.732;2022-08-20T02:29:07;15.80;99.90
59923;DHT22;45778;51.142;3.732;2022-08-20T02:31:34;15.80;99.90
59923;DHT22;45778;51.142;3.732;2022-08-20T02:34:01;15.80;99.90
59923;DHT22;45778;51.142;3.732;2022-08-20T02:36:27;15.80;99.90
59923;DHT22;45778;51.142;3.732;2022-08-20T02:38:53;15.80;99.90
59923;DHT22;45778;51.142;3.732;2022-08-20T02:41:18;15.70;99.90
59923;DHT22;45778;51.142;3.732;2022-08-20T02:43:46;15.60;99.90
59923;DHT22;45778;51.142;3.732;2022-08-20T02:46:12;15.50;99.90
59923;DHT22;45778;51.142;3.732;2022-08-20T02:48:40;15.50;99.90
59923;DHT22;45778;51.142;3.732;2022-08-20T02:51:07;15.50;99.90
59923;DHT22;45778;51.142;3.732;2022-08-20T02:53:37;15.50;99.90
59923;DHT22;45778;51.142;3.732;2022-08-20T02:56:07;15.50;99.90
59923;DHT22;45778;51.142;3.732;2022-08-20T02:58:33;15.50;99.90
59923;DHT22;45778;51.142;3.732;2022-08-20T03:01:00;15.50;99.90
59923;DHT22;45778;51.142;3.732;2022-08-20T03:03:26;15.60;99.90
59923;DHT22;45778;51.142;3.732;2022-08-20T03:05:54;15.50;99.90
59923;DHT22;45778;51.142;3.732;2022-08-20T03:08:21;15.40;99.90
59923;DHT22;45778;51.142;3.732;2022-08-20T03:10:48;15.50;99.90
59923;DHT22;45778;51.142;3.732;2022-08-20T03:13:15;15.30;99.90
59923;DHT22;45778;51.142;3.732;2022-08-20T03:15:47;15.40;99.90
59923;DHT22;45778;51.142;3.732;2022-08-20T03:18:14;15.40;99.90
59923;DHT22;45778;51.142;3.732;2022-08-20T03:20:40;15.30;99.90
59923;DHT22;45778;51.142;3.732;2022-08-20T03:23:06;15.30;99.90
59923;DHT22;45778;51.142;3.732;2022-08-20T03:25:32;15.30;99.90
59923;DHT22;45778;51.142;3.732;2022-08-20T03:27:59;15.30;99.90
59923;DHT22;45778;51.142;3.732;2022-08-20T03:30:26;15.20;99.90
59923;DHT22;45778;51.142;3.732;2022-08-20T03:32:53;15.20;99.90
59923;DHT22;45778;51.142;3.732;2022-08-20T03:35:20;15.30;99.90
59923;DHT22;45778;51.142;3.732;2022-08-20T03:37:46;15.20;99.90
59923;DHT22;45778;51.142;3.732;2022-08-20T03:40:16;15.10;99.90
59923;DHT22;45778;51.142;3.732;2022-08-20T03:42:42;15.10;99.90
59923;DHT22;45778;51.142;3.732;2022-08-20T03:45:09;15.00;99.90
59923;DHT22;45778;51.142;3.732;2022-08-20T03:47:36;15.10;99.90
59923;DHT22;45778;51.142;3.732;2022-08-20T03:50:05;15.10;99.90
59923;DHT22;45778;51.142;3.732;2022-08-20T03:52:31;15.10;99.90
59923;DHT22;45778;51.142;3.732;2022-08-20T03:54:56;15.10;99.90
59923;DHT22;45778;51.142;3.732;2022-08-20T03:57:23;15.10;99.90
59923;DHT22;45778;51.142;3.732;2022-08-20T03:59:48;15.00;99.90
59923;DHT22;45778;51.142;3.732;2022-08-20T04:02:16;15.10;99.90
59923;DHT22;45778;51.142;3.732;2022-08-20T04:04:42;15.00;99.90
59923;DHT22;45778;51.142;3.732;2022-08-20T04:07:17;15.00;99.90
59923;DHT22;45778;51.142;3.732;2022-08-20T04:09:50;14.90;99.90
59923;DHT22;45778;51.142;3.732;2022-08-20T04:12:17;14.80;99.90
59923;DHT22;45778;51.142;3.732;2022-08-20T04:14:43;14.70;99.90
59923;DHT22;45778;51.142;3.732;2022-08-20T04:17:10;14.70;99.90
59923;DHT22;45778;51.142;3.732;2022-08-20T04:19:37;14.70;99.90
59923;DHT22;45778;51.142;3.732;2022-08-20T04:22:04;14.70;99.90
59923;DHT22;45778;51.142;3.732;2022-08-20T04:24:30;14.60;99.90
59923;DHT22;45778;51.142;3.732;2022-08-20T04:26:56;14.70;99.90
59923;DHT22;45778;51.142;3.732;2022-08-20T04:29:24;14.70;99.90
59923;DHT22;45778;51.142;3.732;2022-08-20T04:31:51;14.80;99.90
59923;DHT22;45778;51.142;3.732;2022-08-20T04:34:16;14.60;99.90
59923;DHT22;45778;51.142;3.732;2022-08-20T04:36:44;14.70;99.90
59923;DHT22;45778;51.142;3.732;2022-08-20T04:39:11;14.70;99.90
59923;DHT22;45778;51.142;3.732;2022-08-20T04:41:37;14.70;99.90
59923;DHT22;45778;51.142;3.732;2022-08-20T04:44:02;14.70;99.90
59923;DHT22;45778;51.142;3.732;2022-08-20T04:46:28;14.70;99.90
59923;DHT22;45778;51.142;3.732;2022-08-20T04:48:56;14.80;99.90
59923;DHT22;45778;51.142;3.732;2022-08-20T04:51:21;14.90;99.90
59923;DHT22;45778;51.142;3.732;2022-08-20T04:53:47;14.80;99.90
59923;DHT22;45778;51.142;3.732;2022-08-20T04:56:13;14.90;99.90
59923;DHT22;45778;51.142;3.732;2022-08-20T04:58:39;15.00;99.90
59923;DHT22;45778;51.142;3.732;2022-08-20T05:01:10;14.90;99.90
59923;DHT22;45778;51.142;3.732;2022-08-20T05:03:39;15.00;99.90
59923;DHT22;45778;51.142;3.732;2022-08-20T05:06:08;14.90;99.90
59923;DHT22;45778;51.142;3.732;2022-08-20T05:08:35;15.00;99.90
59923;DHT22;45778;51.142;3.732;2022-08-20T05:11:03;15.00;99.90
59923;DHT22;45778;51.142;3.732;2022-08-20T05:13:29;15.10;99.90
59923;DHT22;45778;51.142;3.732;2022-08-20T05:15:55;15.00;99.90
59923;DHT22;45778;51.142;3.732;2022-08-20T05:18:23;14.90;99.90
59923;DHT22;45778;51.142;3.732;2022-08-20T05:20:52;14.90;99.90
59923;DHT22;45778;51.142;3.732;2022-08-20T05:23:19;15.00;99.90
59923;DHT22;45778;51.142;3.732;2022-08-20T05:25:47;15.30;99.90
59923;DHT22;45778;51.142;3.732;2022-08-20T05:28:20;15.40;99.90
59923;DHT22;45778;51.142;3.732;2022-08-20T05:30:47;15.50;99.90
59923;DHT22;45778;51.142;3.732;2022-08-20T05:33:15;15.60;99.90
59923;DHT22;45778;51.142;3.732;2022-08-20T05:35:42;15.80;99.90
59923;DHT22;45778;51.142;3.732;2022-08-20T05:38:11;15.90;99.90
59923;DHT22;45778;51.142;3.732;2022-08-20T05:40:39;15.70;99.90
59923;DHT22;45778;51.142;3.732;2022-08-20T05:43:06;15.60;99.90
59923;DHT22;45778;51.142;3.732;2022-08-20T05:45:33;15.60;99.90
59923;DHT22;45778;51.142;3.732;2022-08-20T05:48:16;15.60;99.90
59923;DHT22;45778;51.142;3.732;2022-08-20T05:50:44;15.80;99.90
59923;DHT22;45778;51.142;3.732;2022-08-20T05:53:11;15.90;99.90
59923;DHT22;45778;51.142;3.732;2022-08-20T05:55:38;15.90;99.90
59923;DHT22;45778;51.142;3.732;2022-08-20T05:58:07;15.90;99.90
59923;DHT22;45778;51.142;3.732;2022-08-20T06:00:34;16.00;99.90
59923;DHT22;45778;51.142;3.732;2022-08-20T06:03:00;15.90;99.90
59923;DHT22;45778;51.142;3.732;2022-08-20T06:05:44;15.90;99.90
59923;DHT22;45778;51.142;3.732;2022-08-20T06:08:11;15.90;99.90
59923;DHT22;45778;51.142;3.732;2022-08-20T06:10:38;15.90;99.90
59923;DHT22;45778;51.142;3.732;2022-08-20T06:13:04;15.90;99.90
59923;DHT22;45778;51.142;3.732;2022-08-20T06:15:31;15.90;99.90
59923;DHT22;45778;51.142;3.732;2022-08-20T06:17:57;15.90;99.90
59923;DHT22;45778;51.142;3.732;2022-08-20T06:20:23;16.00;99.90
59923;DHT22;45778;51.142;3.732;2022-08-20T06:22:48;16.10;99.90
59923;DHT22;45778;51.142;3.732;2022-08-20T06:25:14;16.30;99.90
59923;DHT22;45778;51.142;3.732;2022-08-20T06:27:41;16.40;99.90
59923;DHT22;45778;51.142;3.732;2022-08-20T06:30:11;16.50;99.90
59923;DHT22;45778;51.142;3.732;2022-08-20T06:32:37;16.50;99.90
59923;DHT22;45778;51.142;3.732;2022-08-20T06:35:05;16.60;99.90
59923;DHT22;45778;51.142;3.732;2022-08-20T06:37:32;16.60;99.90
59923;DHT22;45778;51.142;3.732;2022-08-20T06:40:13;16.70;99.90
59923;DHT22;45778;51.142;3.732;2022-08-20T06:42:40;16.80;99.90
59923;DHT22;45778;51.142;3.732;2022-08-20T06:45:12;16.90;99.90
59923;DHT22;45778;51.142;3.732;2022-08-20T06:47:40;17.00;99.90
59923;DHT22;45778;51.142;3.732;2022-08-20T06:50:08;17.10;99.90
59923;DHT22;45778;51.142;3.732;2022-08-20T06:52:34;17.20;99.90
59923;DHT22;45778;51.142;3.732;2022-08-20T06:55:04;17.40;99.90
59923;DHT22;45778;51.142;3.732;2022-08-20T06:57:30;17.40;99.90
59923;DHT22;45778;51.142;3.732;2022-08-20T06:59:56;17.50;99.90
59923;DHT22;45778;51.142;3.732;2022-08-20T07:02:22;17.60;99.90
59923;DHT22;45778;51.142;3.732;2022-08-20T07:04:49;17.80;99.90
59923;DHT22;45778;51.142;3.732;2022-08-20T07:07:18;17.90;99.90
59923;DHT22;45778;51.142;3.732;2022-08-20T07:09:44;18.00;99.90
59923;DHT22;45778;51.142;3.732;2022-08-20T07:12:11;18.00;99.90
59923;DHT22;45778;51.142;3.732;2022-08-20T07:14:37;18.20;99.90
59923;DHT22;45778;51.142;3.732;2022-08-20T07:17:03;18.30;99.90
59923;DHT22;45778;51.142;3.732;2022-08-20T07:19:29;18.40;99.90
59923;DHT22;45778;51.142;3.732;2022-08-20T07:21:55;18.60;99.90
59923;DHT22;45778;51.142;3.732;2022-08-20T07:24:21;18.70;99.90
59923;DHT22;45778;51.142;3.732;2022-08-20T07:26:47;18.80;99.90
59923;DHT22;45778;51.142;3.732;2022-08-20T07:29:17;18.90;99.90
59923;DHT22;45778;51.142;3.732;2022-08-20T07:31:43;19.10;99.90
59923;DHT22;45778;51.142;3.732;2022-08-20T07:34:27;19.20;99.90
59923;DHT22;45778;51.142;3.732;2022-08-20T07:36:52;19.50;99.90
59923;DHT22;45778;51.142;3.732;2022-08-20T07:39:18;19.50;99.90
59923;DHT22;45778;51.142;3.732;2022-08-20T07:41:45;19.70;99.90
59923;DHT22;45778;51.142;3.732;2022-08-20T07:44:28;19.80;99.90
59923;DHT22;45778;51.142;3.732;2022-08-20T07:46:54;19.80;99.90
59923;DHT22;45778;51.142;3.732;2022-08-20T07:49:19;19.80;99.90
59923;DHT22;45778;51.142;3.732;2022-08-20T07:51:45;19.90;99.90
59923;DHT22;45778;51.142;3.732;2022-08-20T07:54:11;20.10;99.90
59923;DHT22;45778;51.142;3.732;2022-08-20T07:56:36;20.40;99.90
59923;DHT22;45778;51.142;3.732;2022-08-20T07:59:02;20.40;99.90
59923;DHT22;45778;51.142;3.732;2022-08-20T08:01:29;20.60;99.90
59923;DHT22;45778;51.142;3.732;2022-08-20T08:03:56;20.80;99.90
59923;DHT22;45778;51.142;3.732;2022-08-20T08:06:23;20.80;99.90
59923;DHT22;45778;51.142;3.732;2022-08-20T08:08:49;20.80;99.90
59923;DHT22;45778;51.142;3.732;2022-08-20T08:11:15;20.90;99.90
59923;DHT22;45778;51.142;3.732;2022-08-20T08:13:42;20.90;99.90
59923;DHT22;45778;51.142;3.732;2022-08-20T08:16:08;21.00;99.90
59923;DHT22;45778;51.142;3.732;2022-08-20T08:18:46;21.00;99.90
59923;DHT22;45778;51.142;3.732;2022-08-20T08:21:14;21.10;99.90
59923;DHT22;45778;51.142;3.732;2022-08-20T08:23:42;21.00;99.90
59923;DHT22;45778;51.142;3.732;2022-08-20T08:26:10;21.10;99.90
59923;DHT22;45778;51.142;3.732;2022-08-20T08:28:36;21.20;99.90
59923;DHT22;45778;51.142;3.732;2022-08-20T08:31:02;21.20;99.90
59923;DHT22;45778;51.142;3.732;2022-08-20T08:33:29;21.20;99.90
59923;DHT22;45778;51.142;3.732;2022-08-20T08:36:05;21.40;99.90
59923;DHT22;45778;51.142;3.732;2022-08-20T08:38:33;21.60;99.90
59923;DHT22;45778;51.142;3.732;2022-08-20T08:41:19;21.70;99.90
59923;DHT22;45778;51.142;3.732;2022-08-20T08:43:51;21.50;99.90
59923;DHT22;45778;51.142;3.732;2022-08-20T08:46:25;21.40;99.90
59923;DHT22;45778;51.142;3.732;2022-08-20T08:48:55;21.50;99.90
59923;DHT22;45778;51.142;3.732;2022-08-20T08:51:38;21.00;99.90
59923;DHT22;45778;51.142;3.732;2022-08-20T08:54:07;21.00;99.90
59923;DHT22;45778;51.142;3.732;2022-08-20T08:56:33;21.00;99.90
59923;DHT22;45778;51.142;3.732;2022-08-20T08:59:03;21.10;99.90
59923;DHT22;45778;51.142;3.732;2022-08-20T09:01:32;21.30;99.90
59923;DHT22;45778;51.142;3.732;2022-08-20T09:04:01;21.50;99.90
59923;DHT22;45778;51.142;3.732;2022-08-20T09:06:27;21.50;99.90
59923;DHT22;45778;51.142;3.732;2022-08-20T09:08:58;21.60;99.90
59923;DHT22;45778;51.142;3.732;2022-08-20T09:11:26;21.80;99.90
59923;DHT22;45778;51.142;3.732;2022-08-20T09:13:52;21.90;99.90
59923;DHT22;45778;51.142;3.732;2022-08-20T09:16:19;22.20;99.90
59923;DHT22;45778;51.142;3.732;2022-08-20T09:18:45;22.30;99.90
59923;DHT22;45778;51.142;3.732;2022-08-20T09:21:10;22.30;99.80
59923;DHT22;45778;51.142;3.732;2022-08-20T09:23:36;22.30;98.90
59923;DHT22;45778;51.142;3.732;2022-08-20T09:26:02;22.40;99.60
59923;DHT22;45778;51.142;3.732;2022-08-20T09:28:28;22.40;99.90
59923;DHT22;45778;51.142;3.732;2022-08-20T09:30:54;22.50;99.40
59923;DHT22;45778;51.142;3.732;2022-08-20T09:33:19;22.30;99.00
59923;DHT22;45778;51.142;3.732;2022-08-20T09:35:45;22.30;99.50
59923;DHT22;45778;51.142;3.732;2022-08-20T09:38:11;22.20;99.90
59923;DHT22;45778;51.142;3.732;2022-08-20T09:40:37;22.30;99.90
59923;DHT22;45778;51.142;3.732;2022-08-20T09:43:07;22.30;99.90
59923;DHT22;45778;51.142;3.732;2022-08-20T09:45:33;22.30;99.00
59923;DHT22;45778;51.142;3.732;2022-08-20T09:47:59;22.00;99.60
59923;DHT22;45778;51.142;3.732;2022-08-20T09:50:27;21.80;99.10
59923;DHT22;45778;51.142;3.732;2022-08-20T09:52:54;21.80;98.90
59923;DHT22;45778;51.142;3.732;2022-08-20T09:55:37;21.90;99.90
59923;DHT22;45778;51.142;3.732;2022-08-20T10:00:41;21.70;98.60
59923;DHT22;45778;51.142;3.732;2022-08-20T10:03:07;21.50;98.50
59923;DHT22;45778;51.142;3.732;2022-08-20T10:05:32;21.50;99.30
59923;DHT22;45778;51.142;3.732;2022-08-20T10:07:58;21.80;99.20
59923;DHT22;45778;51.142;3.732;2022-08-20T10:10:24;22.00;98.10
59923;DHT22;45778;51.142;3.732;2022-08-20T10:12:50;22.00;96.90
59923;DHT22;45778;51.142;3.732;2022-08-20T10:15:15;21.90;97.90
59923;DHT22;45778;51.142;3.732;2022-08-20T10:17:42;22.10;95.40
59923;DHT22;45778;51.142;3.732;2022-08-20T10:20:10;22.30;96.70
59923;DHT22;45778;51.142;3.732;2022-08-20T10:22:35;22.30;95.80
59923;DHT22;45778;51.142;3.732;2022-08-20T10:25:02;22.30;95.50
59923;DHT22;45778;51.142;3.732;2022-08-20T10:27:28;22.60;95.20
59923;DHT22;45778;51.142;3.732;2022-08-20T10:29:53;22.60;94.50
59923;DHT22;45778;51.142;3.732;2022-08-20T10:32:19;22.70;94.00
59923;DHT22;45778;51.142;3.732;2022-08-20T10:34:45;22.70;93.90
59923;DHT22;45778;51.142;3.732;2022-08-20T10:37:19;22.90;95.30
59923;DHT22;45778;51.142;3.732;2022-08-20T10:39:46;23.20;94.00
59923;DHT22;45778;51.142;3.732;2022-08-20T10:42:12;23.20;94.50
59923;DHT22;45778;51.142;3.732;2022-08-20T10:44:38;23.40;93.70
59923;DHT22;45778;51.142;3.732;2022-08-20T10:47:28;23.30;96.20
59923;DHT22;45778;51.142;3.732;2022-08-20T10:49:56;22.80;96.00
59923;DHT22;45778;51.142;3.732;2022-08-20T10:52:23;22.80;96.70
59923;DHT22;45778;51.142;3.732;2022-08-20T10:54:49;22.90;97.60
59923;DHT22;45778;51.142;3.732;2022-08-20T10:57:21;23.00;96.30
59923;DHT22;45778;51.142;3.732;2022-08-20T10:59:49;22.60;95.60
59923;DHT22;45778;51.142;3.732;2022-08-20T11:02:15;22.60;96.50
59923;DHT22;45778;51.142;3.732;2022-08-20T11:04:42;22.90;95.30
59923;DHT22;45778;51.142;3.732;2022-08-20T11:07:17;22.80;94.90
59923;DHT22;45778;51.142;3.732;2022-08-20T11:09:45;22.90;95.40
59923;DHT22;45778;51.142;3.732;2022-08-20T11:12:11;23.00;96.30
59923;DHT22;45778;51.142;3.732;2022-08-20T11:14:37;22.60;95.80
59923;DHT22;45778;51.142;3.732;2022-08-20T11:17:03;22.50;95.20
59923;DHT22;45778;51.142;3.732;2022-08-20T11:19:28;22.60;94.20
59923;DHT22;45778;51.142;3.732;2022-08-20T11:21:54;23.10;95.50
59923;DHT22;45778;51.142;3.732;2022-08-20T11:24:20;23.60;92.50
59923;DHT22;45778;51.142;3.732;2022-08-20T11:26:47;23.40;93.10
59923;DHT22;45778;51.142;3.732;2022-08-20T11:29:14;23.00;94.10
59923;DHT22;45778;51.142;3.732;2022-08-20T11:31:40;22.80;93.80
59923;DHT22;45778;51.142;3.732;2022-08-20T11:34:05;22.80;93.50
59923;DHT22;45778;51.142;3.732;2022-08-20T11:36:31;22.90;93.90
59923;DHT22;45778;51.142;3.732;2022-08-20T11:38:57;23.10;93.60
59923;DHT22;45778;51.142;3.732;2022-08-20T11:41:23;23.30;92.30
59923;DHT22;45778;51.142;3.732;2022-08-20T11:43:48;23.20;91.60
59923;DHT22;45778;51.142;3.732;2022-08-20T11:46:14;23.20;91.60
59923;DHT22;45778;51.142;3.732;2022-08-20T11:48:40;23.30;92.10
59923;DHT22;45778;51.142;3.732;2022-08-20T11:51:06;23.70;91.80
59923;DHT22;45778;51.142;3.732;2022-08-20T11:53:32;23.50;91.00
59923;DHT22;45778;51.142;3.732;2022-08-20T11:55:58;23.50;91.50
59923;DHT22;45778;51.142;3.732;2022-08-20T11:58:23;23.50;91.90
59923;DHT22;45778;51.142;3.732;2022-08-20T12:00:49;23.70;90.90
59923;DHT22;45778;51.142;3.732;2022-08-20T12:03:15;24.10;91.40
59923;DHT22;45778;51.142;3.732;2022-08-20T12:05:42;24.10;90.30
59923;DHT22;45778;51.142;3.732;2022-08-20T12:08:09;23.90;90.80
59923;DHT22;45778;51.142;3.732;2022-08-20T12:10:36;23.70;90.10
59923;DHT22;45778;51.142;3.732;2022-08-20T12:13:02;24.30;89.60
59923;DHT22;45778;51.142;3.732;2022-08-20T12:15:28;24.50;89.70
59923;DHT22;45778;51.142;3.732;2022-08-20T12:17:54;24.80;88.00
59923;DHT22;45778;51.142;3.732;2022-08-20T12:20:20;25.60;87.10
59923;DHT22;45778;51.142;3.732;2022-08-20T12:22:45;26.20;83.50
59923;DHT22;45778;51.142;3.732;2022-08-20T12:25:12;26.40;82.50
59923;DHT22;45778;51.142;3.732;2022-08-20T12:27:38;27.30;77.70
59923;DHT22;45778;51.142;3.732;2022-08-20T12:30:11;27.20;77.20
59923;DHT22;45778;51.142;3.732;2022-08-20T12:32:36;27.40;76.90
59923;DHT22;45778;51.142;3.732;2022-08-20T12:35:04;26.10;79.30
59923;DHT22;45778;51.142;3.732;2022-08-20T12:37:30;26.70;79.20
59923;DHT22;45778;51.142;3.732;2022-08-20T12:39:58;27.80;77.10
59923;DHT22;45778;51.142;3.732;2022-08-20T12:42:25;28.00;73.30
59923;DHT22;45778;51.142;3.732;2022-08-20T12:44:52;27.30;73.60
59923;DHT22;45778;51.142;3.732;2022-08-20T12:47:30;26.80;75.40
59923;DHT22;45778;51.142;3.732;2022-08-20T12:49:59;27.70;74.40
59923;DHT22;45778;51.142;3.732;2022-08-20T12:52:26;29.10;71.20
59923;DHT22;45778;51.142;3.732;2022-08-20T12:54:53;29.20;69.30
59923;DHT22;45778;51.142;3.732;2022-08-20T12:57:23;28.00;69.20
59923;DHT22;45778;51.142;3.732;2022-08-20T12:59:49;27.40;69.30
59923;DHT22;45778;51.142;3.732;2022-08-20T13:02:15;27.60;71.30
59923;DHT22;45778;51.142;3.732;2022-08-20T13:04:42;27.90;71.40
59923;DHT22;45778;51.142;3.732;2022-08-20T13:07:10;27.50;71.10
59923;DHT22;45778;51.142;3.732;2022-08-20T13:09:37;27.40;72.00
59923;DHT22;45778;51.142;3.732;2022-08-20T13:12:04;26.30;72.90
59923;DHT22;45778;51.142;3.732;2022-08-20T13:14:29;26.80;74.10
59923;DHT22;45778;51.142;3.732;2022-08-20T13:16:59;27.30;70.30
59923;DHT22;45778;51.142;3.732;2022-08-20T13:19:27;27.20;71.00
59923;DHT22;45778;51.142;3.732;2022-08-20T13:21:53;27.50;69.90
59923;DHT22;45778;51.142;3.732;2022-08-20T13:24:19;28.40;70.10
59923;DHT22;45778;51.142;3.732;2022-08-20T13:26:45;27.50;71.00
59923;DHT22;45778;51.142;3.732;2022-08-20T13:29:12;26.70;71.40
59923;DHT22;45778;51.142;3.732;2022-08-20T13:31:38;25.80;72.50
59923;DHT22;45778;51.142;3.732;2022-08-20T13:34:04;26.40;73.30
59923;DHT22;45778;51.142;3.732;2022-08-20T13:36:29;28.60;71.20
59923;DHT22;45778;51.142;3.732;2022-08-20T13:38:55;28.90;69.10
59923;DHT22;45778;51.142;3.732;2022-08-20T13:41:21;28.20;69.30
59923;DHT22;45778;51.142;3.732;2022-08-20T13:43:46;27.60;70.10
59923;DHT22;45778;51.142;3.732;2022-08-20T13:46:12;27.70;70.60
59923;DHT22;45778;51.142;3.732;2022-08-20T13:48:38;28.90;68.90
59923;DHT22;45778;51.142;3.732;2022-08-20T13:51:03;29.50;67.60
59923;DHT22;45778;51.142;3.732;2022-08-20T13:53:29;29.70;65.00
59923;DHT22;45778;51.142;3.732;2022-08-20T13:55:55;29.00;67.40
59923;DHT22;45778;51.142;3.732;2022-08-20T13:58:20;28.70;68.40
59923;DHT22;45778;51.142;3.732;2022-08-20T14:00:47;27.20;69.80
59923;DHT22;45778;51.142;3.732;2022-08-20T14:03:14;26.50;73.80
59923;DHT22;45778;51.142;3.732;2022-08-20T14:05:40;27.50;70.80
59923;DHT22;45778;51.142;3.732;2022-08-20T14:08:12;27.50;70.60
59923;DHT22;45778;51.142;3.732;2022-08-20T14:10:39;28.30;69.60
59923;DHT22;45778;51.142;3.732;2022-08-20T14:13:04;28.70;68.00
59923;DHT22;45778;51.142;3.732;2022-08-20T14:15:32;29.80;66.00
59923;DHT22;45778;51.142;3.732;2022-08-20T14:17:57;29.00;66.70
59923;DHT22;45778;51.142;3.732;2022-08-20T14:20:26;27.50;67.70
59923;DHT22;45778;51.142;3.732;2022-08-20T14:22:52;27.00;69.40
59923;DHT22;45778;51.142;3.732;2022-08-20T14:25:19;27.20;69.90
59923;DHT22;45778;51.142;3.732;2022-08-20T14:27:45;27.70;69.30
59923;DHT22;45778;51.142;3.732;2022-08-20T14:30:17;29.00;66.60
59923;DHT22;45778;51.142;3.732;2022-08-20T14:32:43;29.40;66.10
59923;DHT22;45778;51.142;3.732;2022-08-20T14:35:10;29.80;63.20
59923;DHT22;45778;51.142;3.732;2022-08-20T14:37:41;29.10;67.10
59923;DHT22;45778;51.142;3.732;2022-08-20T14:40:11;29.30;65.80
59923;DHT22;45778;51.142;3.732;2022-08-20T14:42:37;27.80;66.80
59923;DHT22;45778;51.142;3.732;2022-08-20T14:45:05;27.30;68.90
59923;DHT22;45778;51.142;3.732;2022-08-20T14:47:34;26.80;69.20
59923;DHT22;45778;51.142;3.732;2022-08-20T14:50:02;26.00;70.00
59923;DHT22;45778;51.142;3.732;2022-08-20T14:52:30;25.60;72.70
59923;DHT22;45778;51.142;3.732;2022-08-20T14:54:57;25.20;73.90
59923;DHT22;45778;51.142;3.732;2022-08-20T14:57:22;24.80;74.60
59923;DHT22;45778;51.142;3.732;2022-08-20T14:59:51;25.30;74.20
59923;DHT22;45778;51.142;3.732;2022-08-20T15:02:17;26.50;70.30
59923;DHT22;45778;51.142;3.732;2022-08-20T15:04:43;27.60;69.00
59923;DHT22;45778;51.142;3.732;2022-08-20T15:07:30;26.80;69.00
59923;DHT22;45778;51.142;3.732;2022-08-20T15:09:59;26.20;69.70
59923;DHT22;45778;51.142;3.732;2022-08-20T15:12:26;26.00;70.00
59923;DHT22;45778;51.142;3.732;2022-08-20T15:14:52;25.90;70.60
59923;DHT22;45778;51.142;3.732;2022-08-20T15:17:19;26.00;71.90
59923;DHT22;45778;51.142;3.732;2022-08-20T15:19:46;25.80;70.90
59923;DHT22;45778;51.142;3.732;2022-08-20T15:22:11;25.80;71.30
59923;DHT22;45778;51.142;3.732;2022-08-20T15:24:37;25.80;72.00
59923;DHT22;45778;51.142;3.732;2022-08-20T15:27:17;25.80;72.50
59923;DHT22;45778;51.142;3.732;2022-08-20T15:29:44;27.40;69.50
59923;DHT22;45778;51.142;3.732;2022-08-20T15:32:09;27.60;68.00
59923;DHT22;45778;51.142;3.732;2022-08-20T15:34:37;26.90;69.50
59923;DHT22;45778;51.142;3.732;2022-08-20T15:37:14;26.00;71.50
59923;DHT22;45778;51.142;3.732;2022-08-20T15:39:41;25.50;72.00
59923;DHT22;45778;51.142;3.732;2022-08-20T15:42:08;24.80;74.00